Flight Track Log - Related Links

Times and Time Zones

All times are in EDT time to prevent confusion due to time zone crossing. See the N56194 flight status page for this flight to view local times or setup timezone preferences in your user account.

Time Position Orientation Groundspeed Altitude Reporting Facility
EDT Latitude Longitude Course Direction KTS MPH feet Rate Location/Type
Sun 07:33:50 AM 27.6756 -80.4422 346° North 98 113 900  Level Miami Center
Sun 07:34:50 AM 27.6983 -80.4497 344° North 85 98 1,500 500 Climbing Miami Center
Sun 07:35:50 AM 27.7253 -80.4600 341° North 85 98 1,900 450 Climbing Miami Center
Sun 07:36:50 AM 27.7503 -80.4656 349° North 90 104 2,400 450 Climbing Miami Center
Sun 07:37:50 AM 27.7750 -80.4758 340° North 90 104 2,800 500 Climbing Miami Center
Sun 07:38:00 AM 27.8246 -80.4654 346° North  Level Estimated
Sun 07:38:50 AM 27.8061 -80.4839 347° North 90 104 3,400  Level Miami Center
Sun 07:39:50 AM 27.8308 -80.4939 340° North 90 104 3,800 450 Climbing Miami Center
Sun 07:42:10 AM 27.8833 -80.5167 339° North 102 117 4,900 450 Climbing Orlando TRACON
Sun 07:43:10 AM 27.9167 -80.5333 336° Northwest 102 117 5,300 389 Climbing Orlando TRACON
Sun 07:43:58 AM 27.9333 -80.5500 319° Northwest 102 117 5,600 353 Climbing Orlando TRACON
Sun 07:44:52 AM 27.9667 -80.5667 336° Northwest 105 121 5,900 400 Climbing Orlando TRACON
Sun 07:45:58 AM 27.9833 -80.5833 319° Northwest 103 119 6,400 450 Climbing Orlando TRACON
Sun 07:46:52 AM 28.0167 -80.5833 360° North 98 113 6,800 263 Climbing Orlando TRACON
Sun 07:47:52 AM 28.0333 -80.6000 319° Northwest 108 124 6,900 105 Climbing Orlando TRACON
Sun 07:48:46 AM 28.0667 -80.6167 336° Northwest 121 139 7,000 53 Climbing Orlando TRACON
Sun 07:49:46 AM 28.1000 -80.6333 336° Northwest 129 148 7,000  Level Orlando TRACON
Sun 07:50:46 AM 28.1333 -80.6500 336° Northwest 131 151 7,000 -50 Level Orlando TRACON
Sun 07:51:46 AM 28.1667 -80.6667 336° Northwest 130 150 6,900  Descending Orlando TRACON
Sun 07:52:46 AM 28.2000 -80.6833 336° Northwest 126 145 7,000 50 Climbing Orlando TRACON
Sun 07:53:47 AM 28.2333 -80.6833 360° North 128 147 7,000  Level Orlando TRACON
Sun 07:54:52 AM 28.2667 -80.7000 336° Northwest 128 147 7,000 -48 Level Orlando TRACON
Sun 07:55:52 AM 28.3000 -80.7000 360° North 128 147 6,900 -48 Descending Orlando TRACON
Sun 07:56:58 AM 28.3333 -80.7167 336° Northwest 129 148 6,900  Level Orlando TRACON
Sun 07:57:58 AM 28.3833 -80.7333 344° North 130 150 6,900  Level Orlando TRACON
Sun 07:58:53 AM 28.4000 -80.7333 360° North 129 148 6,900 52 Level Orlando TRACON
Sun 07:59:53 AM 28.4333 -80.7500 336° Northwest 128 147 7,000 50 Climbing Orlando TRACON
Sun 08:00:53 AM 28.4833 -80.7667 344° North 133 153 7,000 -50 Level Orlando TRACON
Sun 08:01:53 AM 28.5167 -80.7833 336° Northwest 133 153 6,900  Descending Orlando TRACON
Sun 08:02:53 AM 28.5500 -80.8000 336° Northwest 136 157 7,000 50 Climbing Orlando TRACON
Sun 08:03:53 AM 28.5833 -80.8000 360° North 133 153 7,000  Level Orlando TRACON
Sun 08:04:59 AM 28.6167 -80.8167 336° Northwest 134 154 7,000  Level Orlando TRACON
Sun 08:05:59 AM 28.6500 -80.8333 336° Northwest 134 154 7,000  Level Orlando TRACON
Sun 08:06:59 AM 28.7000 -80.8500 344° North 137 158 7,000 -50 Level Orlando TRACON
Sun 08:07:59 AM 28.7333 -80.8667 336° Northwest 133 153 6,900  Descending Orlando TRACON
Sun 08:09:56 AM 28.7939 -80.8956 337° Northwest 135 155 7,000 34 Climbing Jacksonville Center
Sun 08:10:56 AM 28.8317 -80.9089 343° North 135 155 7,000 -50 Level Jacksonville Center
Sun 08:11:57 AM 28.8653 -80.9200 344° North 136 157 6,900 -50 Descending Jacksonville Center
Sun 08:12:57 AM 28.9008 -80.9336 341° North 135 155 6,900  Level Jacksonville Center
Sun 08:13:58 AM 28.9386 -80.9519 337° Northwest 135 155 6,900 49 Level Jacksonville Center
Sun 08:14:59 AM 28.9744 -80.9631 345° North 130 150 7,000 50 Climbing Jacksonville Center
Sun 08:15:59 AM 29.0100 -80.9694 351° North 130 150 7,000 -47 Level Jacksonville Center
Sun 08:17:06 AM 29.0497 -80.9758 352° North 133 153 6,900 -49 Descending Jacksonville Center
Sun 08:18:01 AM 29.0831 -80.9800 354° North 129 148 6,900  Level Jacksonville Center
Sun 08:19:07 AM 29.1250 -80.9861 353° North 129 148 6,900  Level Jacksonville Center
Sun 08:20:08 AM 29.1586 -80.9928 350° North 132 152 6,900  Level Jacksonville Center
Sun 08:21:08 AM 29.1942 -80.9992 351° North 130 150 6,900  Level Jacksonville Center
Sun 08:22:09 AM 29.2317 -81.0033 354° North 133 153 6,900  Level Jacksonville Center
Sun 08:23:10 AM 29.2694 -81.0097 352° North 135 155 6,900  Level Jacksonville Center
Sun 08:24:10 AM 29.3092 -81.0161 352° North 135 155 6,900  Level Jacksonville Center
Sun 08:25:11 AM 29.3447 -81.0247 348° North 131 151 6,900  Level Jacksonville Center
Sun 08:26:18 AM 29.3844 -81.0289 355° North 129 148 6,900  Level Jacksonville Center
Sun 08:27:18 AM 29.4181 -81.0378 347° North 131 151 6,900 52 Level Jacksonville Center
Sun 08:28:13 AM 29.4514 -81.0419 354° North 130 150 7,000 52 Climbing Jacksonville Center
Sun 08:29:14 AM 29.4892 -81.0483 352° North 132 152 7,000  Level Jacksonville Center
Sun 08:30:15 AM 29.5247 -81.0547 351° North 132 152 7,000  Level Jacksonville Center
Sun 08:31:15 AM 29.5622 -81.0589 354° North 131 151 7,000  Level Jacksonville Center
Sun 08:32:16 AM 29.5981 -81.0703 345° North 132 152 7,000  Level Jacksonville Center
Sun 08:32:33 AM 29.6064 -81.0700 North 136 157 7,000  Level Jacksonville Center
Sun 08:34:04 AM 29.6650 -81.0808 351° North 134 154 7,000  Level Jacksonville Center
Sun 08:35:05 AM 29.7025 -81.0872 352° North 132 152 7,000  Level Jacksonville Center
Sun 08:36:06 AM 29.7403 -81.0961 348° North 135 155 7,000  Level Jacksonville Center
Sun 08:37:01 AM 29.7717 -81.1028 350° North 134 154 7,000  Level Jacksonville Center
Sun 08:38:14 AM 29.8178 -81.1092 353° North 134 154 7,000 45 Level Jacksonville Center
Sun 08:39:15 AM 29.8556 -81.1181 348° North 133 153 7,100 50 Climbing Jacksonville Center
Sun 08:40:15 AM 29.8931 -81.1244 352° North 135 155 7,100 -50 Level Jacksonville Center
Sun 08:41:16 AM 29.9308 -81.1358 345° North 135 155 7,000 -49 Descending Jacksonville Center
Sun 08:42:17 AM 29.9683 -81.1400 355° North 136 157 7,000  Level Jacksonville Center
Sun 08:43:18 AM 30.0061 -81.1439 355° North 134 154 7,000  Level Jacksonville Center
Sun 08:44:19 AM 30.0458 -81.1481 355° North 135 155 7,000  Level Jacksonville Center
Sun 08:45:20 AM 30.0833 -81.1497 358° North 133 153 7,000  Level Jacksonville Center
Sun 08:46:21 AM 30.1211 -81.1564 351° North 132 152 7,000  Level Jacksonville Center
Sun 08:47:28 AM 30.1608 -81.1606 355° North 135 155 7,000  Level Jacksonville Center
Sun 08:48:35 AM 30.2025 -81.1622 358° North 131 151 7,000  Level Jacksonville Center
Sun 08:49:42 AM 30.2422 -81.1661 355° North 131 151 7,000  Level Jacksonville Center
Sun 08:50:37 AM 30.2758 -81.1656 North 132 152 7,000  Level Jacksonville Center
Sun 08:51:38 AM 30.3111 -81.1697 354° North 130 150 7,000  Level Jacksonville Center
Sun 08:52:39 AM 30.3489 -81.1714 358° North 130 150 7,000 68 Level Jacksonville Center
Sun 08:53:06 AM 30.3614 -81.1714 360° North 131 151 7,100 69 Climbing Jacksonville Center
Sun 08:54:06 AM 30.3969 -81.1731 358° North 131 151 7,100 50 Level Jacksonville Center
Sun 08:55:06 AM 30.4325 -81.1747 358° North 131 151 7,200  Climbing Jacksonville Center
Sun 08:56:06 AM 30.4681 -81.1767 357° North 126 145 7,100 -50 Descending Jacksonville Center
Sun 08:57:06 AM 30.5033 -81.1783 358° North 121 139 7,100  Level Jacksonville Center
Sun 08:58:06 AM 30.5411 -81.1825 355° North 121 139 7,100  Level Jacksonville Center
Sun 08:59:06 AM 30.5767 -81.1842 358° North 121 139 7,100  Level Jacksonville Center
Sun 09:00:06 AM 30.6142 -81.1861 357° North 121 139 7,100  Level Jacksonville Center
Sun 09:01:06 AM 30.6497 -81.1878 358° North 121 139 7,100  Level Jacksonville Center
Sun 09:02:06 AM 30.6831 -81.1897 357° North 121 139 7,100 50 Level Jacksonville Center
Sun 09:03:06 AM 30.7208 -81.1939 355° North 127 146 7,200 50 Climbing Jacksonville Center
Sun 09:04:06 AM 30.7564 -81.1981 354° North 127 146 7,200 50 Level Jacksonville Center
Sun 09:05:06 AM 30.7919 -81.2022 354° North 127 146 7,300  Climbing Jacksonville Center
Sun 09:06:06 AM 30.8275 -81.2017 North 122 140 7,200  Descending Jacksonville Center
Sun 09:07:06 AM 30.8608 -81.2058 354° North 122 140 7,300 50 Climbing Jacksonville Center
Sun 09:08:06 AM 30.8983 -81.2075 358° North 122 140 7,300  Level Jacksonville Center
Sun 09:09:06 AM 30.9319 -81.2094 357° North 122 140 7,300 -50 Level Jacksonville Center
Sun 09:10:06 AM 30.9694 -81.2111 358° North 122 140 7,200 -50 Descending Jacksonville Center
Sun 09:11:06 AM 31.0050 -81.2153 354° North 122 140 7,200 -50 Level Jacksonville Center
Sun 09:12:06 AM 31.0406 -81.2194 354° North 122 140 7,100 -50 Descending Jacksonville Center
Sun 09:13:06 AM 31.0783 -81.2236 355° North 122 140 7,100 -50 Level Jacksonville Center
Sun 09:14:06 AM 31.1158 -81.2256 357° North 122 140 7,000 -50 Descending Jacksonville Center
Sun 09:15:06 AM 31.1533 -81.2247 North 122 140 7,000 50 Level Jacksonville Center
Sun 09:16:06 AM 31.1889 -81.2242 North 122 140 7,100 50 Climbing Jacksonville Center
Sun 09:17:06 AM 31.2222 -81.2189 North 117 135 7,100  Level Jacksonville Center
Sun 09:18:06 AM 31.2536 -81.2158 North 123 142 7,100  Level Jacksonville Center
Sun 09:19:06 AM 31.2931 -81.2175 358° North 123 142 7,100 -50 Level Jacksonville Center
Sun 09:20:06 AM 31.3267 -81.2144 North 123 142 7,000 -50 Descending Jacksonville Center
Sun 09:21:06 AM 31.3622 -81.2186 354° North 123 142 7,000 50 Level Jacksonville Center
Sun 09:22:06 AM 31.3933 -81.2181 North 118 136 7,100 50 Climbing Jacksonville Center
Sun 09:23:06 AM 31.4269 -81.2175 North 124 143 7,100  Level Jacksonville Center
Sun 09:24:06 AM 31.4644 -81.2169 North 124 143 7,100 -50 Level Jacksonville Center
Sun 09:25:06 AM 31.4978 -81.2186 358° North 124 143 7,000 -50 Descending Jacksonville Center
Sun 09:26:06 AM 31.5353 -81.2181 North 124 143 7,000  Level Jacksonville Center
Sun 09:27:06 AM 31.5667 -81.2175 North 124 143 7,000  Level Jacksonville Center
Sun 09:28:06 AM 31.6064 -81.2142 North 124 143 7,000 Level Jacksonville Center
Sun 09:30:00 AM 31.6666 -81.2013 10° North  Level FlightAware Approximate
Sun 09:37:00 AM 31.8883 -81.1538 10° North  Level FlightAware Approximate
Sun 09:38:00 AM 31.9200 -81.1470 10° North  Level FlightAware Approximate
Sun 09:39:00 AM 31.9517 -81.1402 10° North  Level FlightAware Approximate
Sun 09:40:00 AM 31.9893 -81.1333 North  Level FlightAware Approximate
Sun 09:41:00 AM 32.0215 -81.1333 North  Level FlightAware Approximate
Sun 09:42:00 AM 32.0537 -81.1333 360° North  Level FlightAware Approximate
Sun 09:43:00 AM 32.0859 -81.1333 360° North  Level FlightAware Approximate
Sun 09:44:00 AM 32.1181 -81.1333 360° North  Level FlightAware Approximate
Sun 09:45:00 AM 32.1503 -81.1333 360° North  Level FlightAware Approximate
Sun 09:46:00 AM 32.1825 -81.1333 360° North  Level FlightAware Approximate
Sun 09:47:00 AM 32.2147 -81.1333 360° North  Level FlightAware Approximate
Sun 09:48:00 AM 32.2469 -81.1333 360° North  Level FlightAware Approximate
Sun 09:49:00 AM 32.2791 -81.1333 360° North  Level FlightAware Approximate
Sun 09:50:00 AM 32.3113 -81.1333 360° North  Level FlightAware Approximate
Sun 09:51:00 AM 32.3435 -81.1333 360° North  Level FlightAware Approximate
Sun 09:52:00 AM 32.3757 -81.1333 360° North  Level FlightAware Approximate
Sun 09:53:00 AM 32.4079 -81.1333 360° North  Level FlightAware Approximate
Sun 09:53:30 AM 32.4894 -81.2056 360° North 118 136 7,100  Level Jacksonville Center
Sun 09:54:00 AM 32.4401 -81.1333 360° North  Level FlightAware Approximate
Sun 09:54:30 AM 32.5247 -81.2072 358° North 118 136 7,100  Level Jacksonville Center
Sun 09:55:00 AM 32.4723 -81.1333 360° North  Level FlightAware Approximate
Sun 09:55:30 AM 32.5561 -81.2067 North 118 136 7,100  Level Jacksonville Center
Sun 09:56:00 AM 32.5045 -81.1333 360° North  Level FlightAware Approximate
Sun 09:56:30 AM 32.5833 -81.2061 North 118 136 7,100  Level Jacksonville Center
Sun 09:57:00 AM 32.5367 -81.1333 360° North  Level FlightAware Approximate
Sun 09:57:30 AM 32.6167 -81.2056 North 118 136 7,100  Level Jacksonville Center
Sun 09:58:30 AM 32.6542 -81.2072 358° North 124 143 7,100 -50 Level Jacksonville Center
Sun 09:59:30 AM 32.6897 -81.2042 North 119 137 7,000  Descending Jacksonville Center
Sun 10:00:30 AM 32.7231 -81.2036 North 119 137 7,100 50 Climbing Jacksonville Center
Sun 10:01:30 AM 32.7567 -81.2056 357° North 119 137 7,100  Level Jacksonville Center
Sun 10:02:30 AM 32.7919 -81.2072 358° North 119 137 7,100  Level Jacksonville Center
Sun 10:03:30 AM 32.8233 -81.2042 North 119 137 7,100  Level Jacksonville Center
Sun 10:04:30 AM 32.8567 -81.2036 North 119 137 7,100  Level Jacksonville Center
Sun 10:05:30 AM 32.8881 -81.2031 North 124 143 7,100  Level Jacksonville Center
Sun 10:06:30 AM 32.9214 -81.2047 358° North 124 143 7,100  Level Jacksonville Center
Sun 10:07:30 AM 32.9528 -81.2017 North 119 137 7,100  Level Jacksonville Center
Sun 10:08:30 AM 32.9861 -81.2036 357° North 119 137 7,100  Level Jacksonville Center
Sun 10:09:30 AM 33.0194 -81.2006 North 119 137 7,100  Level Jacksonville Center
Sun 10:10:30 AM 33.0550 -81.1997 North 119 137 7,100  Level Jacksonville Center
Sun 10:11:30 AM 33.0864 -81.2017 357° North 119 137 7,100  Level Jacksonville Center
Sun 10:12:30 AM 33.1197 -81.1986 North 119 137 7,100  Level Jacksonville Center
Sun 10:13:30 AM 33.1550 -81.1981 North 119 137 7,100  Level Jacksonville Center
Sun 10:14:30 AM 33.1864 -81.1972 North 119 137 7,100  Level Jacksonville Center
Sun 10:15:30 AM 33.2219 -81.1942 North 119 137 7,100  Level Jacksonville Center
Sun 10:16:30 AM 33.2531 -81.1961 357° North 124 143 7,100  Level Jacksonville Center
Sun 10:17:30 AM 33.2867 -81.1931 North 124 143 7,100  Level Jacksonville Center
Sun 10:18:30 AM 33.3242 -81.1922 North 124 143 7,100  Level Jacksonville Center
Sun 10:19:30 AM 33.3553 -81.1892 North 124 143 7,100  Level Jacksonville Center
Sun 10:20:30 AM 33.3908 -81.1908 358° North 124 143 7,100 -59 Level Jacksonville Center
Sun 10:22:00 AM 33.4414 -81.1890 North  Level FlightAware Approximate
Sun 10:29:00 AM 33.6774 -81.1805 North  Level FlightAware Approximate
Sun 10:30:00 AM 33.7113 -81.1793 North  Level FlightAware Approximate
Sun 10:31:00 AM 33.7451 -81.1781 North  Level FlightAware Approximate
Sun 10:32:00 AM 33.7790 -81.1769 North  Level FlightAware Approximate
Sun 10:33:00 AM 33.8128 -81.1757 North  Level FlightAware Approximate
Sun 10:34:00 AM 33.8467 -81.1744 North  Level FlightAware Approximate
Sun 10:35:00 AM 33.8806 -81.1732 North  Level FlightAware Approximate
Sun 10:36:00 AM 33.9144 -81.1720 North  Level FlightAware Approximate
Sun 10:37:00 AM 33.9483 -81.1708 North  Level FlightAware Approximate
Sun 10:38:00 AM 33.9815 -81.1500 North  Level FlightAware Approximate
Sun 10:39:00 AM 34.0148 -81.1500 North  Level FlightAware Approximate
Sun 10:40:00 AM 34.0482 -81.1500 North  Level FlightAware Approximate
Sun 10:41:00 AM 34.0815 -81.1500 North  Level FlightAware Approximate
Sun 10:42:00 AM 34.1148 -81.1500 North  Level FlightAware Approximate
Sun 10:43:00 AM 34.1482 -81.1500 North  Level FlightAware Approximate
Sun 10:44:00 AM 34.1815 -81.1500 North  Level FlightAware Approximate
Sun 10:45:00 AM 34.2148 -81.1500 North  Level FlightAware Approximate
Sun 10:46:00 AM 34.2481 -81.1500 North  Level FlightAware Approximate
Sun 10:47:00 AM 34.2815 -81.1500 North  Level FlightAware Approximate
Sun 10:48:00 AM 34.3148 -81.1500 North  Level FlightAware Approximate
Sun 10:49:00 AM 34.3481 -81.1500 North  Level FlightAware Approximate
Sun 10:50:00 AM 34.3815 -81.1500 North  Level FlightAware Approximate
Sun 10:51:00 AM 34.4148 -81.1500 North  Level FlightAware Approximate
Sun 10:51:29 AM 34.4600 -81.1769 North 113 130 5,200  Level Atlanta Center
Sun 10:52:00 AM 34.4481 -81.1500 North  Level FlightAware Approximate
Sun 10:52:55 AM 34.5061 -81.1778 359° North 119 137 5,100  Level Atlanta Center
Sun 10:53:00 AM 34.4814 -81.1500 North  Level FlightAware Approximate
Sun 10:53:55 AM 34.5417 -81.1817 355° North 121 139 5,100  Level Atlanta Center
Sun 10:54:00 AM 34.5148 -81.1500 North  Level FlightAware Approximate
Sun 10:54:56 AM 34.5750 -81.1856 355° North 120 138 5,000  Level Atlanta Center
Sun 10:55:00 AM 34.5481 -81.1500 North  Level FlightAware Approximate
Sun 10:55:57 AM 34.6086 -81.1919 351° North 120 138 5,100  Level Atlanta Center
Sun 10:56:00 AM 34.5814 -81.1500 North  Level FlightAware Approximate
Sun 10:56:58 AM 34.6419 -81.1958 355° North 120 138 5,100  Level Atlanta Center
Sun 10:58:05 AM 34.6778 -81.2022 352° North 121 139 5,100  Level Atlanta Center
Sun 10:59:00 AM 34.7092 -81.2064 354° North 121 139 5,100 -49 Level Atlanta Center
Sun 11:00:07 AM 34.7489 -81.2150 350° North 127 146 5,000  Descending Atlanta Center
Sun 11:01:08 AM 34.7825 -81.2189 355° North 121 139 5,100  Climbing Atlanta Center
Sun 11:02:03 AM 34.8117 -81.2231 353° North 119 137 5,000 -52 Descending Atlanta Center
Sun 11:03:03 AM 34.8472 -81.2294 352° North 124 143 5,000 -50 Level Atlanta Center
Sun 11:04:04 AM 34.8831 -81.2358 352° North 125 144 4,900  Descending Atlanta Center
Sun 11:05:05 AM 34.9164 -81.2372 358° North 122 140 5,000 49 Climbing Atlanta Center
Sun 11:06:06 AM 34.9500 -81.2461 348° North 122 140 5,000  Level Atlanta Center
Sun 11:07:07 AM 34.9856 -81.2528 351° North 122 140 5,000 -49 Level Atlanta Center
Sun 11:08:08 AM 35.0211 -81.2592 352° North 126 145 4,900  Descending Atlanta Center
Sun 11:08:57 AM 35.0464 -81.2608 357° North 124 143 5,000 98 Climbing Atlanta Center
Sun 11:10:10 AM 35.0883 -81.2694 350° North 121 139 5,100 45 Climbing Atlanta Center
Sun 11:11:11 AM 35.1239 -81.2733 355° North 123 142 5,100 49 Level Atlanta Center
Sun 11:12:12 AM 35.1594 -81.2797 352° North 125 144 5,200  Climbing Atlanta Center
Sun 11:13:13 AM 35.1931 -81.2864 351° North 128 147 5,100 -259 Descending Atlanta Center
Sun 11:14:08 AM 35.2283 -81.2800 North 134 154 4,700 -446 Descending Atlanta Center
Sun 11:15:14 AM 35.2656 -81.2661 17° North 134 154 4,200 -331 Descending Atlanta Center
Sun 11:16:15 AM 35.2986 -81.2522 19° North 129 148 4,000 -98 Descending Atlanta Center
Sun 11:17:17 AM 35.3314 -81.2333 25° Northeast 124 143 4,000  Level Atlanta Center
Sun 11:19:00 AM 35.3847 -81.2005 27° Northeast  Level FlightAware Approximate
Sun 11:26:00 AM 35.4667 -81.1500 19° North  Level FlightAware Approximate
Sun 11:27:00 AM 35.4320 -81.1527 19° North  Level Estimated
Sun 11:28:00 AM 35.4667 -81.1500 19° North  Level FlightAware Approximate
Sun 11:29:00 AM 35.4320 -81.1527 19° North  Level Estimated
Sun 11:30:00 AM 35.4667 -81.1500 19° North  Level FlightAware Approximate
Sun 11:31:00 AM 35.4320 -81.1527 19° North  Level Estimated
Sun 11:32:00 AM 35.4667 -81.1500 19° North  Level FlightAware Approximate
Sun 11:33:00 AM 35.4320 -81.1527 19° North  Level Estimated
Sun 11:34:00 AM 35.4667 -81.1500 19° North  Level FlightAware Approximate
Sun 11:35:00 AM 35.4320 -81.1527 19° North  Level Estimated
Sun 11:36:00 AM 35.4667 -81.1500 19° North  Level FlightAware Approximate
Sun 11:37:00 AM 35.4320 -81.1527 19° North  Level Estimated
Sun 11:38:00 AM 35.4667 -81.1500 19° North  Level FlightAware Approximate
Sun 11:39:00 AM 35.4320 -81.1527 19° North  Level Estimated

Login

Don't have an account? Register now (free) for customized features, flight alerts, and more!